createdAt,value
2018-06-07T00:02:12.338Z,1.00
2018-06-07T00:04:41.021Z,0.80
2018-06-07T00:07:09.737Z,0.95
2018-06-07T00:09:54.657Z,1.00
2018-06-07T00:15:10.906Z,0.90
2018-06-07T00:23:15.937Z,0.80
2018-06-07T00:25:44.829Z,0.80
2018-06-07T00:31:06.081Z,1.23
2018-06-07T00:39:11.715Z,1.20
2018-06-07T00:47:18.633Z,1.27
2018-06-07T00:49:48.189Z,0.80
2018-06-07T00:52:31.712Z,0.98
2018-06-07T00:55:00.495Z,1.00
2018-06-07T01:17:10.740Z,0.70
2018-06-07T01:19:39.429Z,1.10
2018-06-07T01:22:12.486Z,1.00
2018-06-07T01:33:32.232Z,1.02
2018-06-07T01:41:49.303Z,1.37
2018-06-07T01:44:19.254Z,1.05
2018-06-07T01:49:37.976Z,1.20
2018-06-07T01:54:59.658Z,1.02
2018-06-07T02:36:18.916Z,1.20
2018-06-07T03:40:23.780Z,1.10
2018-06-07T03:48:18.584Z,1.30
2018-06-07T03:50:51.357Z,1.52
2018-06-07T03:56:08.049Z,1.20
2018-06-07T03:58:37.048Z,1.20
2018-06-07T04:03:54.380Z,1.20
2018-06-07T04:12:06.515Z,1.20
2018-06-07T04:20:27.058Z,1.20
2018-06-07T04:22:56.574Z,1.40
2018-06-07T04:36:37.090Z,1.35
2018-06-07T04:42:03.793Z,1.40
2018-06-07T04:44:48.287Z,1.10
2018-06-07T04:52:56.774Z,1.33
2018-06-07T04:55:27.681Z,1.27
2018-06-07T04:57:59.133Z,1.10
2018-06-07T05:00:30.685Z,1.17
2018-06-07T05:03:08.007Z,1.52
2018-06-07T05:05:38.656Z,1.20
2018-06-07T05:08:23.884Z,1.05
2018-06-07T05:10:55.251Z,1.50
2018-06-07T05:13:26.883Z,1.20
2018-06-07T05:15:57.384Z,1.33
2018-06-07T05:18:31.896Z,1.30
2018-06-07T05:21:00.544Z,1.50
2018-06-07T05:23:29.229Z,1.00
2018-06-07T05:25:57.881Z,1.60
2018-06-07T05:28:26.544Z,1.20
2018-06-07T05:30:55.186Z,1.45
2018-06-07T05:33:23.795Z,1.30
2018-06-07T05:35:52.459Z,1.40
2018-06-07T05:38:21.243Z,1.70
2018-06-07T05:40:50.576Z,1.60
2018-06-07T05:43:24.102Z,1.40
2018-06-07T05:45:54.939Z,1.90
2018-06-07T05:48:26.194Z,1.67
2018-06-07T05:50:54.873Z,1.50
2018-06-07T05:53:28.309Z,1.67
2018-06-07T05:55:57.112Z,1.37
2018-06-07T05:58:27.729Z,1.80
2018-06-07T06:00:58.988Z,1.60
2018-06-07T06:03:27.561Z,1.50
2018-06-07T06:06:03.718Z,1.87
2018-06-07T06:08:34.439Z,1.55
2018-06-07T06:11:03.553Z,1.70
2018-06-07T06:13:34.185Z,1.40
2018-06-07T06:16:03.593Z,1.80
2018-06-07T06:18:32.252Z,1.77
2018-06-07T06:21:03.909Z,1.85
2018-06-07T06:23:34.555Z,1.90
2018-06-07T06:26:03.211Z,1.45
2018-06-07T06:28:31.818Z,1.85
2018-06-07T06:31:00.441Z,2.25
2018-06-07T06:33:31.760Z,2.28
2018-06-07T06:36:00.727Z,1.70
2018-06-07T06:38:34.733Z,1.77
2018-06-07T06:41:03.964Z,1.98
2018-06-07T06:43:32.581Z,1.90
2018-06-07T06:46:08.178Z,1.87
2018-06-07T06:48:39.564Z,2.08
2018-06-07T06:51:10.928Z,1.83
2018-06-07T06:53:57.079Z,2.10
2018-06-07T06:56:28.056Z,2.10
2018-06-07T06:58:56.648Z,2.58
2018-06-07T07:01:25.299Z,2.00
2018-06-07T07:03:56.228Z,1.87
2018-06-07T07:06:24.961Z,2.00
2018-06-07T07:08:53.567Z,2.00
2018-06-07T07:11:24.652Z,1.83
2018-06-07T07:13:56.308Z,1.87
2018-06-07T07:16:25.005Z,2.10
2018-06-07T07:18:56.038Z,2.33
2018-06-07T07:21:28.003Z,2.33
2018-06-07T07:23:59.144Z,2.25
2018-06-07T07:26:29.026Z,2.37
2018-06-07T07:28:57.630Z,2.50
2018-06-07T07:31:26.278Z,2.33
2018-06-07T07:33:55.348Z,2.55
2018-06-07T07:36:25.303Z,2.30
2018-06-07T07:38:53.959Z,2.33
2018-06-07T07:41:23.632Z,2.37
2018-06-07T07:44:00.309Z,2.65
2018-06-07T07:46:31.103Z,2.35
2018-06-07T07:48:59.746Z,3.50
2018-06-07T07:51:30.732Z,2.42
2018-06-07T07:54:01.346Z,2.90
2018-06-07T07:56:30.498Z,2.87
2018-06-07T07:58:59.196Z,3.17
2018-06-07T08:01:28.767Z,2.75
2018-06-07T08:03:58.376Z,3.40
2018-06-07T08:06:27.060Z,2.62
2018-06-07T08:08:55.705Z,2.67
2018-06-07T08:11:26.195Z,3.12
2018-06-07T08:16:43.420Z,3.00
2018-06-07T08:19:16.444Z,3.35
2018-06-07T08:21:45.080Z,3.30
2018-06-07T08:24:16.653Z,3.25
2018-06-07T08:26:58.827Z,3.28
2018-06-07T08:29:27.406Z,3.67
2018-06-07T08:32:04.664Z,3.93
2018-06-07T08:37:24.849Z,3.72
2018-06-07T08:39:58.694Z,3.42
2018-06-07T08:42:27.645Z,3.42
2018-06-07T08:44:56.249Z,3.30
2018-06-07T08:47:29.082Z,3.60
2018-06-07T08:50:05.378Z,3.80
2018-06-07T08:52:40.933Z,4.10
2018-06-07T08:55:09.569Z,3.78
2018-06-07T08:57:38.443Z,4.00
2018-06-07T09:00:07.110Z,4.15
2018-06-07T09:02:35.758Z,3.80
2018-06-07T09:05:04.398Z,3.85
2018-06-07T09:07:33.004Z,3.97
2018-06-07T09:10:01.625Z,3.65
2018-06-07T09:12:30.251Z,4.12
2018-06-07T09:14:58.882Z,3.53
2018-06-07T09:17:27.507Z,3.67
2018-06-07T09:19:56.147Z,3.87
2018-06-07T09:22:24.744Z,4.47
2018-06-07T09:24:53.372Z,3.60
2018-06-07T09:27:22.028Z,3.83
2018-06-07T09:29:51.338Z,4.05
2018-06-07T09:35:09.239Z,3.80
2018-06-07T09:37:46.704Z,3.80
2018-06-07T09:40:17.991Z,4.30
2018-06-07T09:42:48.651Z,4.40
2018-06-07T09:45:17.794Z,4.60
2018-06-07T09:50:34.869Z,4.90
2018-06-07T09:53:06.220Z,4.35
2018-06-07T09:55:35.211Z,4.22
2018-06-07T09:58:05.052Z,4.32
2018-06-07T10:00:33.635Z,4.25
2018-06-07T10:03:04.330Z,4.22
2018-06-07T10:05:32.964Z,4.00
2018-06-07T10:08:01.560Z,4.37
2018-06-07T10:10:30.187Z,4.28
2018-06-07T10:12:59.060Z,4.12
2018-06-07T10:15:30.162Z,4.10
2018-06-07T10:17:58.770Z,3.60
2018-06-07T10:20:27.911Z,4.30
2018-06-07T10:23:04.063Z,4.20
2018-06-07T10:25:33.845Z,4.55
2018-06-07T10:28:02.481Z,4.45
2018-06-07T10:30:31.665Z,4.78
2018-06-07T10:33:01.173Z,4.68
2018-06-07T10:35:29.983Z,4.32
2018-06-07T10:37:58.791Z,4.15
2018-06-07T10:40:27.665Z,4.45
2018-06-07T10:42:56.939Z,4.47
2018-06-07T10:45:25.651Z,4.80
2018-06-07T10:47:57.534Z,5.12
2018-06-07T10:50:28.213Z,5.18
2018-06-07T10:53:09.467Z,4.97
2018-06-07T10:55:40.863Z,4.60
2018-06-07T10:58:09.632Z,4.45
2018-06-07T11:00:38.254Z,4.80
2018-06-07T11:03:09.900Z,5.22
2018-06-07T11:05:38.972Z,5.07
2018-06-07T11:08:08.952Z,5.05
2018-06-07T11:10:37.728Z,4.97
2018-06-07T11:13:06.785Z,4.62
2018-06-07T11:15:35.551Z,5.15
2018-06-07T11:18:04.534Z,4.82
2018-06-07T11:20:33.254Z,5.37
2018-06-07T11:23:04.471Z,4.83
2018-06-07T11:25:33.113Z,4.82
2018-06-07T11:28:01.759Z,5.22
2018-06-07T11:30:30.408Z,5.07
2018-06-07T11:33:00.024Z,5.30
2018-06-07T11:35:28.644Z,4.87
2018-06-07T11:37:59.885Z,5.53
2018-06-07T11:40:28.505Z,4.72
2018-06-07T11:45:47.332Z,5.50
2018-06-07T11:48:15.985Z,5.22
2018-06-07T11:50:46.908Z,5.32
2018-06-07T11:53:17.526Z,5.45
2018-06-07T11:55:46.488Z,4.93
2018-06-07T11:58:15.159Z,5.72
2018-06-07T12:00:43.776Z,5.60
2018-06-07T12:03:17.706Z,5.45
2018-06-07T12:05:53.645Z,5.87
2018-06-07T12:08:23.304Z,5.35
2018-06-07T12:10:51.932Z,5.35
2018-06-07T12:13:20.631Z,5.18
2018-06-07T12:15:49.288Z,5.65
2018-06-07T12:18:18.282Z,5.78
2018-06-07T12:20:46.885Z,5.10
2018-06-07T12:23:15.545Z,5.10
2018-06-07T12:25:46.213Z,5.12
2018-06-07T12:28:17.724Z,5.05
2018-06-07T12:30:46.558Z,5.80
2018-06-07T12:33:17.070Z,5.03
2018-06-07T12:35:49.349Z,5.47
2018-06-07T12:38:18.162Z,5.20
2018-06-07T12:40:46.803Z,5.60
2018-06-07T12:43:15.793Z,4.97
2018-06-07T12:45:44.376Z,4.90
2018-06-07T12:48:14.421Z,4.60
2018-06-07T12:50:43.365Z,5.28
2018-06-07T12:53:12.588Z,5.37
2018-06-07T12:55:41.672Z,4.78
2018-06-07T12:58:12.191Z,5.03
2018-06-07T13:00:41.114Z,5.40
2018-06-07T13:03:10.315Z,5.47
2018-06-07T13:05:43.866Z,5.25
2018-06-07T13:08:12.777Z,5.43
2018-06-07T13:10:41.635Z,5.65
2018-06-07T13:13:10.706Z,5.62
2018-06-07T13:15:39.333Z,5.80
2018-06-07T13:18:08.258Z,5.10
2018-06-07T13:20:44.995Z,5.03
2018-06-07T13:23:17.945Z,5.00
2018-06-07T13:25:47.537Z,5.50
2018-06-07T13:28:16.164Z,5.07
2018-06-07T13:30:49.402Z,4.90
2018-06-07T13:33:20.477Z,4.97
2018-06-07T13:35:53.755Z,4.90
2018-06-07T13:38:22.406Z,5.10
2018-06-07T13:40:53.061Z,5.07
2018-06-07T13:43:21.943Z,5.30
2018-06-07T13:45:50.576Z,5.05
2018-06-07T13:48:21.208Z,4.93
2018-06-07T13:50:50.025Z,4.62
2018-06-07T13:53:18.561Z,4.85
2018-06-07T13:55:49.204Z,5.07
2018-06-07T13:58:33.350Z,5.45
2018-06-07T14:01:02.597Z,4.60
2018-06-07T14:03:31.220Z,4.47
2018-06-07T14:06:02.607Z,4.55
2018-06-07T14:08:35.264Z,4.35
2018-06-07T14:11:04.283Z,5.10
2018-06-07T14:13:32.884Z,4.72
2018-06-07T14:16:01.814Z,5.00
2018-06-07T14:18:32.941Z,4.70
2018-06-07T14:21:03.748Z,4.87
2018-06-07T14:23:34.950Z,4.65
2018-06-07T14:26:05.716Z,4.97
2018-06-07T14:28:34.499Z,4.78
2018-06-07T14:31:03.266Z,4.62
2018-06-07T14:33:32.633Z,4.55
2018-06-07T14:36:01.580Z,4.45
2018-06-07T14:38:30.184Z,4.35
2018-06-07T14:40:58.834Z,4.40
2018-06-07T14:43:28.100Z,4.20
2018-06-07T14:45:56.865Z,4.47
2018-06-07T14:48:26.094Z,5.03
2018-06-07T14:50:55.197Z,4.75
2018-06-07T14:53:23.839Z,4.45
2018-06-07T14:55:52.874Z,4.18
2018-06-07T14:58:23.589Z,4.68
2018-06-07T15:00:59.779Z,4.72
2018-06-07T15:03:28.711Z,4.15
2018-06-07T15:05:58.428Z,4.20
2018-06-07T15:08:29.191Z,4.20
2018-06-07T15:13:49.506Z,4.40
2018-06-07T15:16:34.873Z,4.60
2018-06-07T15:19:04.723Z,4.18
2018-06-07T15:21:35.561Z,4.22
2018-06-07T15:24:08.100Z,4.00
2018-06-07T15:26:39.664Z,4.10
2018-06-07T15:29:11.409Z,4.22
2018-06-07T15:31:42.748Z,3.90
2018-06-07T15:34:15.756Z,4.30
2018-06-07T15:36:47.194Z,3.90
2018-06-07T15:39:34.007Z,3.58
2018-06-07T15:42:06.868Z,3.50
2018-06-07T15:44:43.874Z,3.70
2018-06-07T15:47:15.288Z,4.00
2018-06-07T15:49:46.584Z,4.28
2018-06-07T15:52:17.888Z,4.43
2018-06-07T15:54:55.351Z,3.85
2018-06-07T15:57:24.955Z,3.90
2018-06-07T15:59:57.283Z,4.03
2018-06-07T16:02:36.534Z,4.00
2018-06-07T16:07:55.842Z,4.53
2018-06-07T16:10:26.974Z,4.30
2018-06-07T16:12:57.595Z,3.95
2018-06-07T16:15:41.912Z,3.70
2018-06-07T16:18:11.543Z,3.58
2018-06-07T16:20:40.402Z,3.80
2018-06-07T16:23:11.303Z,3.90
2018-06-07T16:25:47.448Z,4.07
2018-06-07T16:28:16.245Z,3.75
2018-06-07T16:30:44.993Z,3.95
2018-06-07T16:33:13.653Z,3.60
2018-06-07T16:35:57.895Z,3.83
2018-06-07T16:38:40.211Z,3.97
2018-06-07T16:43:57.668Z,3.70
2018-06-07T16:46:26.699Z,3.67
2018-06-07T16:48:59.993Z,4.20
2018-06-07T16:51:36.812Z,4.10
2018-06-07T16:54:06.693Z,3.95
2018-06-07T16:56:42.740Z,3.97
2018-06-07T16:59:13.759Z,3.83
2018-06-07T17:01:50.972Z,4.03
2018-06-07T17:04:19.627Z,3.97
2018-06-07T17:07:04.673Z,4.03
2018-06-07T17:09:34.033Z,3.67
2018-06-07T17:12:05.684Z,4.15
2018-06-07T17:14:34.579Z,3.70
2018-06-07T17:19:51.278Z,4.53
2018-06-07T17:22:24.181Z,4.22
2018-06-07T17:27:42.768Z,4.03
2018-06-07T17:33:01.564Z,4.70
2018-06-07T17:35:49.262Z,4.47
2018-06-07T17:38:21.634Z,4.12
2018-06-07T17:40:58.209Z,4.20
2018-06-07T17:54:39.633Z,4.22
2018-06-07T18:24:56.259Z,6.20
2018-06-07T18:38:34.970Z,4.65
2018-06-07T18:49:41.792Z,5.18
2018-06-07T19:08:50.121Z,5.37
2018-06-07T19:11:38.703Z,4.90
2018-06-07T19:17:01.107Z,4.65
2018-06-07T19:19:30.121Z,4.97
2018-06-07T19:30:43.177Z,4.95
2018-06-07T19:39:17.974Z,5.05
2018-06-07T19:55:59.615Z,5.30
2018-06-07T20:01:33.759Z,5.28
2018-06-07T20:12:36.606Z,5.80
2018-06-07T20:29:17.686Z,5.37
2018-06-07T20:51:18.268Z,5.35
2018-06-07T20:56:35.126Z,5.20
2018-06-07T20:59:04.820Z,5.03
2018-06-07T21:04:23.976Z,4.85
2018-06-07T21:06:49.992Z,5.15
2018-06-07T21:12:12.075Z,4.57
2018-06-07T21:14:44.108Z,4.43
2018-06-07T21:20:00.625Z,4.57
2018-06-07T21:27:50.294Z,3.75
2018-06-07T21:33:08.020Z,4.37
2018-06-07T21:35:40.095Z,4.60
2018-06-07T21:38:08.855Z,4.12
2018-06-07T21:52:19.670Z,3.80
2018-06-07T21:54:51.405Z,3.45
2018-06-07T22:02:55.916Z,3.17
2018-06-07T22:08:14.280Z,2.70
2018-06-07T22:13:35.831Z,3.47
2018-06-07T22:16:05.867Z,3.55
2018-06-07T22:18:38.312Z,3.92
2018-06-07T22:21:10.394Z,3.73
2018-06-07T22:24:02.575Z,3.30
2018-06-07T22:43:24.274Z,3.80
2018-06-07T22:45:58.528Z,3.10
2018-06-07T22:48:28.998Z,4.00
2018-06-07T22:51:03.522Z,3.87
2018-06-07T23:13:17.263Z,4.28
2018-06-07T23:15:53.107Z,4.43
2018-06-07T23:18:38.275Z,3.85
